createdAt,value
2019-05-18T00:01:38.339Z,23.87
2019-05-18T00:04:42.252Z,23.93
2019-05-18T00:07:46.181Z,22.77
2019-05-18T00:10:50.067Z,25.50
2019-05-18T00:13:53.976Z,21.17
2019-05-18T00:16:57.869Z,24.87
2019-05-18T00:20:02.043Z,23.70
2019-05-18T00:23:05.928Z,22.60
2019-05-18T00:26:09.873Z,24.00
2019-05-18T00:29:13.992Z,24.57
2019-05-18T00:32:17.884Z,24.93
2019-05-18T00:35:21.905Z,25.17
2019-05-18T00:38:25.786Z,25.67
2019-05-18T00:41:29.631Z,24.90
2019-05-18T00:44:33.477Z,24.73
2019-05-18T00:47:41.386Z,25.17
2019-05-18T00:50:43.053Z,27.10
2019-05-18T00:53:46.813Z,25.60
2019-05-18T00:56:50.802Z,28.20
2019-05-18T00:59:54.666Z,24.57
2019-05-18T01:02:58.478Z,22.77
2019-05-18T01:06:02.449Z,25.37
2019-05-18T01:09:07.015Z,27.17
2019-05-18T01:12:10.916Z,26.70
2019-05-18T01:15:15.757Z,28.35
2019-05-18T01:18:19.527Z,28.73
2019-05-18T01:21:23.409Z,28.03
2019-05-18T01:24:27.210Z,28.97
2019-05-18T01:27:31.070Z,27.90
2019-05-18T01:30:35.654Z,26.00
2019-05-18T01:33:39.493Z,27.97
2019-05-18T01:36:43.512Z,28.00
2019-05-18T01:39:47.315Z,28.87
2019-05-18T01:42:51.140Z,27.93
2019-05-18T01:45:55.035Z,26.93
2019-05-18T01:48:58.956Z,29.73
2019-05-18T01:52:02.962Z,30.17
2019-05-18T01:55:07.868Z,30.60
2019-05-18T01:58:11.696Z,28.17
2019-05-18T02:01:15.534Z,32.30
2019-05-18T02:04:23.053Z,30.40
2019-05-18T02:07:30.389Z,32.05
2019-05-18T02:10:34.260Z,31.82
2019-05-18T02:13:38.189Z,29.93
2019-05-18T02:16:41.952Z,33.50
2019-05-18T02:19:45.872Z,31.23
2019-05-18T02:22:49.636Z,31.87
2019-05-18T02:25:53.526Z,29.90
2019-05-18T02:28:57.317Z,31.63
2019-05-18T02:32:01.155Z,35.80
2019-05-18T02:35:06.406Z,36.27
2019-05-18T02:38:19.745Z,40.47
2019-05-18T02:41:23.639Z,36.23
2019-05-18T02:44:27.583Z,35.20
2019-05-18T02:47:31.502Z,31.48
2019-05-18T02:50:35.349Z,33.63
2019-05-18T02:53:39.204Z,32.53
2019-05-18T02:56:43.183Z,34.13
2019-05-18T02:59:47.085Z,39.27
2019-05-18T03:02:50.869Z,32.20
2019-05-18T03:05:54.893Z,38.63
2019-05-18T03:08:58.918Z,40.50
2019-05-18T03:12:03.253Z,33.63
2019-05-18T03:15:07.649Z,37.17
2019-05-18T03:18:11.696Z,35.30
2019-05-18T03:21:16.481Z,40.53
2019-05-18T03:24:20.560Z,39.37
2019-05-18T03:27:24.471Z,42.20
2019-05-18T03:30:29.000Z,47.77
2019-05-18T03:33:32.834Z,37.27
2019-05-18T03:36:36.877Z,39.90
2019-05-18T03:39:40.840Z,36.73
2019-05-18T03:42:44.629Z,39.67
2019-05-18T03:45:48.493Z,36.53
2019-05-18T03:48:52.522Z,40.77
2019-05-18T03:51:56.508Z,40.73
2019-05-18T03:55:00.416Z,40.23
2019-05-18T03:58:04.418Z,41.17
2019-05-18T04:01:08.218Z,39.03
2019-05-18T04:04:12.198Z,40.10
2019-05-18T04:07:17.336Z,45.33
2019-05-18T04:10:25.407Z,38.30
2019-05-18T04:13:29.252Z,41.43
2019-05-18T04:16:33.157Z,40.50
2019-05-18T04:19:46.084Z,39.70
2019-05-18T04:22:42.838Z,38.43
2019-05-18T04:25:46.690Z,38.63
2019-05-18T04:28:50.531Z,39.80
2019-05-18T04:31:54.426Z,37.58
2019-05-18T04:34:58.315Z,40.77
2019-05-18T04:38:02.158Z,39.30
2019-05-18T04:41:05.937Z,42.33
2019-05-18T04:44:09.784Z,37.93
2019-05-18T04:47:13.793Z,42.57
2019-05-18T04:50:17.919Z,38.13
2019-05-18T04:53:21.923Z,40.23
2019-05-18T04:56:26.696Z,44.03
2019-05-18T04:59:30.756Z,43.17
2019-05-18T05:02:34.622Z,38.63
2019-05-18T05:05:38.455Z,41.17
2019-05-18T05:08:42.361Z,42.77
2019-05-18T05:11:48.585Z,39.92
2019-05-18T05:14:52.566Z,42.90
2019-05-18T05:17:57.978Z,39.07
2019-05-18T05:21:01.972Z,37.87
2019-05-18T05:24:05.989Z,38.07
2019-05-18T05:27:09.897Z,35.10
2019-05-18T05:30:14.683Z,33.23
2019-05-18T05:33:18.734Z,33.27
2019-05-18T05:36:22.637Z,34.03
2019-05-18T05:39:26.557Z,35.93
2019-05-18T05:42:30.542Z,33.53
2019-05-18T05:45:36.772Z,35.00
2019-05-18T05:48:40.738Z,33.57
2019-05-18T05:51:44.690Z,32.63
2019-05-18T05:54:48.599Z,31.40
2019-05-18T05:57:52.449Z,33.27
2019-05-18T06:00:56.431Z,29.03
2019-05-18T06:04:02.204Z,27.87
2019-05-18T06:07:07.425Z,28.77
2019-05-18T06:10:11.728Z,28.17
2019-05-18T06:13:17.456Z,26.40
2019-05-18T06:16:21.473Z,25.67
2019-05-18T06:19:25.423Z,25.10
2019-05-18T06:22:31.573Z,24.73
2019-05-18T06:25:35.718Z,21.93
2019-05-18T06:28:39.530Z,21.40
2019-05-18T06:31:43.421Z,20.03
2019-05-18T06:34:49.860Z,19.67
2019-05-18T06:37:53.785Z,18.77
2019-05-18T06:40:57.671Z,17.83
2019-05-18T06:44:02.057Z,16.27
2019-05-18T06:47:08.389Z,15.40
2019-05-18T06:50:13.378Z,15.03
2019-05-18T06:53:17.899Z,14.23
2019-05-18T06:56:22.650Z,14.33
2019-05-18T06:59:27.846Z,14.63
2019-05-18T07:02:33.931Z,14.00
2019-05-18T07:05:37.823Z,15.20
2019-05-18T07:08:44.786Z,14.38
2019-05-18T07:11:48.943Z,14.43
2019-05-18T07:14:52.803Z,13.07
2019-05-18T07:17:56.799Z,13.77
2019-05-18T07:21:03.875Z,14.27
2019-05-18T07:24:12.834Z,12.13
2019-05-18T07:27:19.536Z,13.43
2019-05-18T07:30:25.468Z,12.03
2019-05-18T07:33:29.488Z,12.27
2019-05-18T07:36:35.731Z,11.47
2019-05-18T07:39:42.022Z,11.97
2019-05-18T07:42:54.940Z,12.83
2019-05-18T07:46:08.684Z,11.57
2019-05-18T07:49:14.399Z,10.73
2019-05-18T07:52:18.827Z,10.18
2019-05-18T07:55:22.648Z,11.47
2019-05-18T07:58:28.019Z,10.10
2019-05-18T08:01:34.775Z,10.67
2019-05-18T08:04:39.911Z,10.93
2019-05-18T08:07:47.025Z,10.87
2019-05-18T08:10:50.906Z,9.97
2019-05-18T08:13:54.855Z,10.87
2019-05-18T08:17:00.298Z,9.33
2019-05-18T08:20:04.860Z,10.67
2019-05-18T08:23:08.704Z,11.07
2019-05-18T08:26:12.535Z,12.70
2019-05-18T08:29:18.176Z,11.23
2019-05-18T08:32:22.074Z,11.43
2019-05-18T08:35:27.340Z,11.43
2019-05-18T08:38:31.273Z,10.17
2019-05-18T08:41:35.174Z,11.27
2019-05-18T08:44:48.533Z,10.57
2019-05-18T08:47:52.391Z,11.80
2019-05-18T08:50:56.286Z,10.28
2019-05-18T08:54:00.220Z,9.97
2019-05-18T08:57:04.142Z,10.13
2019-05-18T09:00:09.686Z,9.73
2019-05-18T09:03:19.046Z,9.77
2019-05-18T09:06:22.909Z,9.30
2019-05-18T09:09:26.677Z,9.13
2019-05-18T09:12:30.647Z,10.13
2019-05-18T09:15:34.823Z,10.45
2019-05-18T09:18:42.022Z,9.90
2019-05-18T09:21:45.930Z,9.00
2019-05-18T09:24:49.731Z,10.40
2019-05-18T09:27:53.622Z,11.67
2019-05-18T09:30:57.680Z,8.97
2019-05-18T09:34:05.135Z,9.57
2019-05-18T09:37:09.079Z,9.00
2019-05-18T09:40:14.210Z,9.20
2019-05-18T09:43:18.112Z,9.17
2019-05-18T09:46:21.963Z,9.07
2019-05-18T09:49:25.759Z,9.37
2019-05-18T09:52:44.083Z,9.17
2019-05-18T09:55:35.183Z,8.97
2019-05-18T09:58:39.090Z,8.63
2019-05-18T10:01:42.940Z,7.77
2019-05-18T10:04:46.830Z,6.93
2019-05-18T10:07:50.577Z,7.07
2019-05-18T10:10:54.376Z,7.40
2019-05-18T10:13:58.406Z,7.43
2019-05-18T10:17:02.244Z,7.43
2019-05-18T10:20:06.583Z,6.43
2019-05-18T10:23:13.683Z,7.33
2019-05-18T10:26:16.027Z,7.47
2019-05-18T10:29:20.226Z,6.23
2019-05-18T10:32:24.080Z,6.23
2019-05-18T10:35:27.864Z,6.47
2019-05-18T10:38:31.598Z,5.97
2019-05-18T10:41:53.042Z,6.72
2019-05-18T10:44:56.892Z,7.20
2019-05-18T10:48:00.717Z,6.93
2019-05-18T10:51:05.643Z,6.87
2019-05-18T10:54:09.675Z,7.40
2019-05-18T10:57:13.435Z,6.80
2019-05-18T11:00:18.296Z,6.97
2019-05-18T11:03:22.255Z,6.78
2019-05-18T11:06:26.254Z,9.20
2019-05-18T11:09:32.348Z,9.10
2019-05-18T11:12:36.168Z,9.00
2019-05-18T11:15:40.313Z,9.07
2019-05-18T11:18:44.234Z,9.20
2019-05-18T11:21:48.465Z,9.17
2019-05-18T11:24:52.259Z,7.83
2019-05-18T11:27:56.133Z,7.17
2019-05-18T11:31:00.150Z,6.07
2019-05-18T11:34:03.870Z,6.03
2019-05-18T11:37:07.712Z,5.67
2019-05-18T11:40:13.418Z,6.20
2019-05-18T11:43:17.173Z,5.50
2019-05-18T11:46:21.040Z,5.70
2019-05-18T11:49:24.854Z,5.57
2019-05-18T11:52:28.747Z,6.20
2019-05-18T11:55:36.203Z,6.70
2019-05-18T11:58:40.113Z,6.83
2019-05-18T12:01:44.379Z,7.20
2019-05-18T12:04:48.808Z,6.60
2019-05-18T12:07:55.312Z,5.77
2019-05-18T12:10:59.176Z,5.50
2019-05-18T12:14:03.302Z,5.45
2019-05-18T12:17:07.217Z,5.33
2019-05-18T12:20:11.588Z,4.83
2019-05-18T12:23:15.418Z,4.50
2019-05-18T12:26:19.234Z,4.83
2019-05-18T12:29:23.199Z,4.00
2019-05-18T12:32:26.955Z,4.50
2019-05-18T12:35:30.725Z,4.40
2019-05-18T12:38:34.551Z,4.47
2019-05-18T12:41:39.787Z,4.30
2019-05-18T12:44:43.574Z,5.13
2019-05-18T12:47:47.414Z,4.70
2019-05-18T12:50:52.386Z,4.60
2019-05-18T12:53:56.193Z,4.07
2019-05-18T12:57:00.290Z,4.07
2019-05-18T13:00:05.257Z,4.13
2019-05-18T13:03:09.169Z,3.97
2019-05-18T13:06:13.037Z,3.70
2019-05-18T13:09:16.850Z,4.10
2019-05-18T13:12:20.726Z,3.80
2019-05-18T13:15:24.714Z,58.83
2019-05-18T13:18:28.507Z,4.43
2019-05-18T13:21:32.285Z,3.93
2019-05-18T13:24:44.876Z,35.77
2019-05-18T13:27:41.686Z,3.60
2019-05-18T13:30:45.489Z,12.03
2019-05-18T13:33:49.303Z,4.07
2019-05-18T13:36:53.026Z,3.33
2019-05-18T13:39:56.839Z,2.83
2019-05-18T13:43:00.620Z,3.30
2019-05-18T13:46:04.550Z,3.40
2019-05-18T13:49:08.517Z,3.47
2019-05-18T13:52:12.255Z,3.00
2019-05-18T13:55:16.232Z,3.30
2019-05-18T13:58:20.058Z,3.40
2019-05-18T14:01:23.890Z,3.07
2019-05-18T14:04:27.662Z,3.60
2019-05-18T14:07:31.514Z,3.77
2019-05-18T14:10:35.278Z,3.07
2019-05-18T14:13:39.096Z,3.30
2019-05-18T14:16:42.841Z,3.20
2019-05-18T14:19:46.744Z,3.93
2019-05-18T14:22:51.499Z,5.90
2019-05-18T14:25:55.341Z,3.10
2019-05-18T14:28:59.101Z,3.80
2019-05-18T14:32:02.915Z,3.73
2019-05-18T14:35:06.965Z,4.10
2019-05-18T14:38:10.827Z,4.10
2019-05-18T14:41:14.598Z,3.63
2019-05-18T14:44:18.322Z,3.50
2019-05-18T14:47:22.005Z,3.20
2019-05-18T14:50:25.795Z,3.13
2019-05-18T14:53:30.627Z,2.60
2019-05-18T14:56:34.412Z,3.27
2019-05-18T14:59:38.350Z,2.70
2019-05-18T15:02:42.084Z,2.80
2019-05-18T15:05:46.825Z,2.53
2019-05-18T15:08:50.626Z,3.10
2019-05-18T15:11:54.481Z,3.10
2019-05-18T15:15:01.596Z,3.27
2019-05-18T15:18:08.367Z,3.90
2019-05-18T15:21:12.141Z,3.50
2019-05-18T15:24:16.020Z,3.60
2019-05-18T15:27:19.833Z,2.80
2019-05-18T15:30:24.908Z,2.60
2019-05-18T15:33:28.853Z,3.13
2019-05-18T15:36:32.660Z,3.40
2019-05-18T15:39:38.516Z,3.60
2019-05-18T15:42:44.089Z,3.10
2019-05-18T15:45:49.319Z,2.93
2019-05-18T15:48:53.431Z,3.33
2019-05-18T15:51:59.511Z,3.27
2019-05-18T15:55:03.257Z,3.00
2019-05-18T15:58:07.241Z,3.10
2019-05-18T16:01:10.993Z,5.37
2019-05-18T16:04:14.740Z,3.70
2019-05-18T16:07:18.702Z,4.60
2019-05-18T16:10:26.694Z,3.10
2019-05-18T16:13:30.693Z,3.37
2019-05-18T16:16:34.632Z,4.10
2019-05-18T16:19:42.422Z,3.80
2019-05-18T16:22:53.637Z,4.80
2019-05-18T16:25:54.514Z,3.53
2019-05-18T16:29:10.726Z,3.40
2019-05-18T16:32:17.965Z,3.37
2019-05-18T16:35:29.656Z,3.08
2019-05-18T16:38:36.278Z,6.23
2019-05-18T16:41:43.202Z,3.70
2019-05-18T16:44:49.671Z,3.03
2019-05-18T16:47:53.563Z,10.70
2019-05-18T16:51:02.638Z,3.62
2019-05-18T16:54:14.418Z,3.73
2019-05-18T16:57:18.199Z,3.70
2019-05-18T17:00:22.712Z,4.20
2019-05-18T17:03:29.681Z,4.67
2019-05-18T17:06:33.513Z,4.23
2019-05-18T17:09:39.579Z,4.23
2019-05-18T17:12:43.435Z,3.97
2019-05-18T17:15:47.321Z,4.20
2019-05-18T17:18:52.769Z,5.20
2019-05-18T17:21:56.713Z,4.37
2019-05-18T17:25:02.988Z,6.20
2019-05-18T17:28:06.931Z,3.33
2019-05-18T17:31:11.842Z,3.80
2019-05-18T17:34:15.676Z,3.40
2019-05-18T17:37:19.640Z,3.70
2019-05-18T17:40:27.022Z,4.33
2019-05-18T17:43:31.988Z,3.90
2019-05-18T17:46:35.797Z,3.60
2019-05-18T17:49:39.587Z,4.50
2019-05-18T17:52:43.605Z,3.90
2019-05-18T17:55:48.393Z,4.63
2019-05-18T17:58:52.437Z,5.70
2019-05-18T18:01:56.201Z,5.67
2019-05-18T18:05:03.085Z,5.87
2019-05-18T18:08:06.823Z,5.70
2019-05-18T18:11:11.956Z,5.10
2019-05-18T18:14:15.882Z,5.30
2019-05-18T18:17:19.687Z,5.73
2019-05-18T18:20:24.045Z,6.47
2019-05-18T18:23:27.946Z,6.60
2019-05-18T18:26:31.911Z,8.47
2019-05-18T18:29:35.760Z,6.90
2019-05-18T18:32:40.788Z,6.78
2019-05-18T18:35:44.640Z,6.00
2019-05-18T18:38:48.625Z,6.40
2019-05-18T18:41:52.459Z,5.40
2019-05-18T18:44:56.844Z,5.80
2019-05-18T18:48:00.730Z,5.93
2019-05-18T18:51:04.723Z,6.77
2019-05-18T18:54:12.544Z,9.37
2019-05-18T18:57:17.332Z,8.50
2019-05-18T19:00:24.467Z,7.67
2019-05-18T19:03:28.400Z,7.90
2019-05-18T19:06:34.953Z,7.67
2019-05-18T19:09:38.799Z,8.30
2019-05-18T19:12:44.858Z,7.47
2019-05-18T19:15:48.727Z,7.85
2019-05-18T19:18:54.362Z,7.40
2019-05-18T19:21:58.196Z,6.60
2019-05-18T19:25:02.056Z,6.10
2019-05-18T19:28:05.894Z,6.57
2019-05-18T19:31:09.698Z,7.13
2019-05-18T19:34:13.469Z,7.07
2019-05-18T19:37:17.439Z,8.07
2019-05-18T19:40:23.124Z,7.50
2019-05-18T19:43:26.973Z,7.83
2019-05-18T19:46:30.774Z,8.77
2019-05-18T19:49:34.586Z,9.07
2019-05-18T19:52:38.737Z,8.00
2019-05-18T19:55:42.507Z,8.50
2019-05-18T19:58:47.716Z,9.10
2019-05-18T20:01:51.611Z,8.97
2019-05-18T20:05:07.374Z,9.27
2019-05-18T20:08:01.022Z,11.48
2019-05-18T20:11:04.969Z,12.87
2019-05-18T20:14:08.930Z,13.67
2019-05-18T20:17:12.865Z,13.43
2019-05-18T20:20:17.245Z,16.60
2019-05-18T20:23:21.040Z,15.87
2019-05-18T20:26:24.826Z,17.80
2019-05-18T20:29:28.673Z,18.67
2019-05-18T20:32:32.424Z,18.27
2019-05-18T20:35:36.161Z,22.70
2019-05-18T20:38:40.060Z,22.30
2019-05-18T20:41:43.850Z,24.57
2019-05-18T20:44:47.707Z,25.80
2019-05-18T20:47:51.460Z,24.70
2019-05-18T20:50:55.235Z,22.97
2019-05-18T20:53:59.043Z,23.07
2019-05-18T20:57:02.800Z,22.77
2019-05-18T21:00:07.329Z,21.17
2019-05-18T21:03:11.187Z,21.17
2019-05-18T21:06:15.003Z,24.47
2019-05-18T21:09:20.567Z,27.03
2019-05-18T21:12:24.429Z,25.77
2019-05-18T21:15:28.126Z,24.57
2019-05-18T21:18:32.018Z,27.27
2019-05-18T21:21:35.821Z,24.23
2019-05-18T21:24:39.744Z,24.20
2019-05-18T21:27:43.453Z,22.52
2019-05-18T21:30:47.151Z,21.70
2019-05-18T21:33:51.079Z,21.37
2019-05-18T21:36:54.812Z,22.17
2019-05-18T21:39:58.710Z,21.33
2019-05-18T21:43:02.436Z,22.60
2019-05-18T21:46:06.144Z,22.87
2019-05-18T21:49:09.914Z,25.87
2019-05-18T21:52:13.728Z,24.17
2019-05-18T21:55:17.510Z,20.60
2019-05-18T21:58:21.390Z,22.43
2019-05-18T22:01:25.221Z,21.40
2019-05-18T22:04:29.055Z,23.47
2019-05-18T22:07:33.405Z,21.57
2019-05-18T22:10:37.322Z,20.37
2019-05-18T22:13:41.069Z,20.83
2019-05-18T22:16:44.809Z,23.37
2019-05-18T22:19:48.633Z,21.37
2019-05-18T22:22:52.311Z,23.23
2019-05-18T22:25:57.184Z,20.33
2019-05-18T22:29:01.195Z,19.30
2019-05-18T22:32:05.136Z,18.87
2019-05-18T22:35:08.986Z,17.83
2019-05-18T22:38:12.727Z,17.77
2019-05-18T22:41:16.525Z,18.47
2019-05-18T22:44:20.386Z,16.83
2019-05-18T22:47:24.246Z,17.67
2019-05-18T22:50:27.989Z,17.17
2019-05-18T22:53:31.798Z,17.30
2019-05-18T22:56:35.581Z,15.20
2019-05-18T22:59:39.381Z,15.63
2019-05-18T23:02:43.148Z,16.37
2019-05-18T23:05:47.160Z,15.67
2019-05-18T23:08:50.991Z,15.73
2019-05-18T23:11:54.800Z,17.30
2019-05-18T23:14:58.634Z,14.70
2019-05-18T23:18:02.385Z,15.00
2019-05-18T23:21:06.171Z,14.43
2019-05-18T23:24:09.981Z,15.90
2019-05-18T23:27:13.822Z,15.67
2019-05-18T23:30:17.918Z,15.53
2019-05-18T23:33:21.688Z,15.50
2019-05-18T23:36:25.506Z,16.23
2019-05-18T23:39:29.616Z,15.23
2019-05-18T23:42:33.329Z,17.17
2019-05-18T23:45:37.190Z,15.90
2019-05-18T23:48:40.949Z,15.90
2019-05-18T23:51:45.437Z,16.02
2019-05-18T23:54:49.304Z,15.97
2019-05-18T23:57:52.995Z,16.10
